createdAt,value
2019-03-06T00:01:35.631Z,0.97
2019-03-06T00:04:04.979Z,0.99
2019-03-06T00:06:34.453Z,0.95
2019-03-06T00:11:59.263Z,0.97
2019-03-06T00:14:28.972Z,0.94
2019-03-06T00:17:00.007Z,0.96
2019-03-06T00:19:29.314Z,0.99
2019-03-06T00:21:58.614Z,0.97
2019-03-06T00:24:47.423Z,0.99
2019-03-06T00:27:16.729Z,1.03
2019-03-06T00:29:46.312Z,1.04
2019-03-06T00:37:41.810Z,1.08
2019-03-06T00:43:08.376Z,1.10
2019-03-06T00:45:37.845Z,1.13
2019-03-06T00:48:07.184Z,1.10
2019-03-06T00:50:36.649Z,1.11
2019-03-06T00:53:06.004Z,1.13
2019-03-06T00:55:35.309Z,1.15
2019-03-06T00:58:04.763Z,1.14
2019-03-06T01:00:34.040Z,1.14
2019-03-06T01:05:58.289Z,1.19
2019-03-06T01:11:36.200Z,1.22
2019-03-06T01:14:05.917Z,1.18
2019-03-06T01:16:35.191Z,1.18
2019-03-06T01:19:04.978Z,1.13
2019-03-06T01:21:34.278Z,1.12
2019-03-06T01:24:03.794Z,1.16
2019-03-06T01:26:33.056Z,1.19
2019-03-06T01:29:02.347Z,1.18
2019-03-06T01:31:31.636Z,1.16
2019-03-06T01:34:19.873Z,1.16
2019-03-06T01:37:08.095Z,1.15
2019-03-06T01:39:56.296Z,1.17
2019-03-06T01:42:44.475Z,1.19
2019-03-06T01:45:13.945Z,1.22
2019-03-06T01:48:02.291Z,1.24
2019-03-06T01:50:52.322Z,1.15
2019-03-06T01:53:21.589Z,1.24
2019-03-06T01:55:50.996Z,1.25
2019-03-06T01:58:20.373Z,1.27
2019-03-06T02:00:49.860Z,1.28
2019-03-06T02:03:19.194Z,0.97
2019-03-06T02:05:48.515Z,1.28
2019-03-06T02:08:38.228Z,1.31
2019-03-06T02:11:07.752Z,1.30
2019-03-06T02:13:37.253Z,1.32
2019-03-06T02:16:06.517Z,1.32
2019-03-06T02:18:36.123Z,1.32
2019-03-06T02:21:05.400Z,1.33
2019-03-06T02:23:35.012Z,1.33
2019-03-06T02:26:04.274Z,1.31
2019-03-06T02:31:09.122Z,1.30
2019-03-06T02:33:38.445Z,1.32
2019-03-06T02:36:08.156Z,1.32
2019-03-06T02:38:37.496Z,1.30
2019-03-06T02:41:06.968Z,1.31
2019-03-06T02:43:36.413Z,1.34
2019-03-06T02:46:06.097Z,1.36
2019-03-06T02:48:35.391Z,1.34
2019-03-06T02:51:05.119Z,1.36
2019-03-06T02:53:34.410Z,1.37
2019-03-06T02:56:05.576Z,1.37
2019-03-06T02:58:53.769Z,1.09
2019-03-06T03:01:41.937Z,1.36
2019-03-06T03:04:49.076Z,1.37
2019-03-06T03:07:19.769Z,1.39
2019-03-06T03:09:49.075Z,1.40
2019-03-06T03:12:18.365Z,1.45
2019-03-06T03:14:47.658Z,1.45
2019-03-06T03:17:17.256Z,1.42
2019-03-06T03:19:46.821Z,1.33
2019-03-06T03:22:16.450Z,1.43
2019-03-06T03:24:45.734Z,1.02
2019-03-06T03:27:15.198Z,1.44
2019-03-06T03:29:44.510Z,1.40
2019-03-06T03:32:14.229Z,1.44
2019-03-06T03:34:43.530Z,1.44
2019-03-06T03:37:13.022Z,1.42
2019-03-06T03:45:25.409Z,1.49
2019-03-06T03:47:54.694Z,1.21
2019-03-06T03:50:37.280Z,1.49
2019-03-06T03:53:06.574Z,1.52
2019-03-06T03:55:36.080Z,1.53
2019-03-06T03:58:05.396Z,1.55
2019-03-06T04:00:35.184Z,1.57
2019-03-06T04:03:04.451Z,1.59
2019-03-06T04:05:33.950Z,1.59
2019-03-06T04:08:22.482Z,1.60
2019-03-06T04:11:11.014Z,1.61
2019-03-06T04:13:40.314Z,1.61
2019-03-06T04:18:58.263Z,1.60
2019-03-06T04:21:27.551Z,1.58
2019-03-06T04:23:57.005Z,1.58
2019-03-06T04:29:33.781Z,1.58
2019-03-06T04:32:03.061Z,1.63
2019-03-06T04:37:20.695Z,1.64
2019-03-06T04:39:49.977Z,1.66
2019-03-06T04:42:19.324Z,1.66
2019-03-06T04:44:50.391Z,1.69
2019-03-06T04:47:19.855Z,1.68
2019-03-06T04:49:52.785Z,1.70
2019-03-06T04:52:20.359Z,1.71
2019-03-06T04:54:49.647Z,1.44
2019-03-06T04:57:19.212Z,1.75
2019-03-06T04:59:48.698Z,1.76
2019-03-06T05:02:18.294Z,1.81
2019-03-06T05:04:47.601Z,1.83
2019-03-06T05:10:11.321Z,1.63
2019-03-06T05:12:40.726Z,1.96
2019-03-06T05:15:10.288Z,2.00
2019-03-06T05:20:21.173Z,2.04
2019-03-06T05:23:09.514Z,2.05
2019-03-06T05:25:38.829Z,2.08
2019-03-06T05:28:08.114Z,2.10
2019-03-06T05:30:37.405Z,2.12
2019-03-06T05:33:07.282Z,2.16
2019-03-06T05:35:48.307Z,2.19
2019-03-06T05:38:39.145Z,2.20
2019-03-06T05:41:08.424Z,2.21
2019-03-06T05:43:37.841Z,2.23
2019-03-06T05:46:07.127Z,2.26
2019-03-06T05:48:36.708Z,2.29
2019-03-06T05:51:05.995Z,2.31
2019-03-06T05:53:35.506Z,2.35
2019-03-06T05:56:04.841Z,2.36
2019-03-06T05:58:34.317Z,2.38
2019-03-06T06:01:03.611Z,2.39
2019-03-06T06:03:32.979Z,2.41
2019-03-06T06:06:21.484Z,2.43
2019-03-06T06:08:50.811Z,2.44
2019-03-06T06:11:20.180Z,2.45
2019-03-06T06:13:49.515Z,2.47
2019-03-06T06:16:19.102Z,2.46
2019-03-06T06:18:48.475Z,2.47
2019-03-06T06:21:36.665Z,2.50
2019-03-06T06:24:10.731Z,2.51
2019-03-06T06:26:40.030Z,2.54
2019-03-06T06:29:09.319Z,2.54
2019-03-06T06:31:38.621Z,2.56
2019-03-06T06:34:08.233Z,2.59
2019-03-06T06:36:37.553Z,2.28
2019-03-06T06:39:07.446Z,2.66
2019-03-06T06:41:55.791Z,2.69
2019-03-06T06:44:27.124Z,2.71
2019-03-06T06:47:15.364Z,2.74
2019-03-06T06:49:44.727Z,2.79
2019-03-06T06:52:35.960Z,2.85
2019-03-06T06:55:43.256Z,2.89
2019-03-06T06:58:50.553Z,2.96
2019-03-06T07:05:30.648Z,3.11
2019-03-06T07:08:18.833Z,3.22
2019-03-06T07:11:07.045Z,3.33
2019-03-06T07:13:42.798Z,3.41
2019-03-06T07:16:31.108Z,3.49
2019-03-06T07:19:11.907Z,3.53
2019-03-06T07:22:00.131Z,3.60
2019-03-06T07:24:48.312Z,3.64
2019-03-06T07:27:36.513Z,3.73
2019-03-06T07:33:26.307Z,3.87
2019-03-06T07:36:15.786Z,3.96
2019-03-06T07:38:45.250Z,4.02
2019-03-06T07:41:52.479Z,4.12
2019-03-06T07:44:40.962Z,4.20
2019-03-06T07:47:29.325Z,4.26
2019-03-06T07:50:05.036Z,4.31
2019-03-06T07:52:53.234Z,4.32
2019-03-06T07:55:41.732Z,4.33
2019-03-06T07:58:49.044Z,4.37
2019-03-06T08:01:18.413Z,4.44
2019-03-06T08:04:01.254Z,4.49
2019-03-06T08:06:30.640Z,4.53
2019-03-06T08:08:59.950Z,4.58
2019-03-06T08:11:48.244Z,4.58
2019-03-06T08:14:36.728Z,4.59
2019-03-06T08:17:23.107Z,4.61
2019-03-06T08:20:11.564Z,4.62
2019-03-06T08:22:59.890Z,4.68
2019-03-06T08:25:49.103Z,4.75
2019-03-06T08:28:18.983Z,4.81
2019-03-06T08:30:59.581Z,4.87
2019-03-06T08:33:29.787Z,4.92
2019-03-06T08:35:59.540Z,4.95
2019-03-06T08:38:29.090Z,4.95
2019-03-06T08:41:04.382Z,4.96
2019-03-06T08:43:30.586Z,5.06
2019-03-06T08:46:18.816Z,5.13
2019-03-06T08:49:08.218Z,5.21
2019-03-06T08:51:57.242Z,5.24
2019-03-06T08:54:46.366Z,5.36
2019-03-06T08:57:25.652Z,5.39
2019-03-06T09:00:13.914Z,5.45
2019-03-06T09:03:02.469Z,5.14
2019-03-06T09:05:50.707Z,5.49
2019-03-06T09:09:02.117Z,5.53
2019-03-06T09:11:49.952Z,5.54
2019-03-06T09:14:38.144Z,5.59
2019-03-06T09:17:26.814Z,5.64
2019-03-06T09:20:15.020Z,5.70
2019-03-06T09:23:03.457Z,5.78
2019-03-06T09:25:51.750Z,5.81
2019-03-06T09:28:49.169Z,5.86
2019-03-06T09:31:56.330Z,5.93
2019-03-06T09:34:44.600Z,6.02
2019-03-06T09:37:30.732Z,6.15
2019-03-06T09:40:38.081Z,6.17
2019-03-06T09:43:26.281Z,6.12
2019-03-06T09:46:14.484Z,6.15
2019-03-06T09:49:10.898Z,6.15
2019-03-06T09:51:41.174Z,6.08
2019-03-06T09:54:27.982Z,6.04
2019-03-06T09:57:16.931Z,5.99
2019-03-06T10:00:05.183Z,5.99
2019-03-06T10:02:53.384Z,6.01
2019-03-06T10:05:41.654Z,6.00
2019-03-06T10:08:30.218Z,6.01
2019-03-06T10:11:20.213Z,5.97
2019-03-06T10:14:08.422Z,5.98
2019-03-06T10:16:56.601Z,5.89
2019-03-06T10:19:45.602Z,5.88
2019-03-06T10:22:14.900Z,5.90
2019-03-06T10:24:44.292Z,5.90
2019-03-06T10:27:13.578Z,5.93
2019-03-06T10:29:43.168Z,5.93
2019-03-06T10:32:23.942Z,6.01
2019-03-06T10:34:55.032Z,5.99
2019-03-06T10:37:24.393Z,5.93
2019-03-06T10:39:53.977Z,5.89
2019-03-06T10:42:23.317Z,5.88
2019-03-06T10:44:52.632Z,5.85
2019-03-06T10:47:22.052Z,5.82
2019-03-06T10:49:51.381Z,5.77
2019-03-06T10:52:20.703Z,5.76
2019-03-06T10:54:50.029Z,5.69
2019-03-06T10:57:19.323Z,5.65
2019-03-06T10:59:48.758Z,5.59
2019-03-06T11:02:18.159Z,5.59
2019-03-06T11:05:06.321Z,5.52
2019-03-06T11:07:35.815Z,5.50
2019-03-06T11:10:44.498Z,5.45
2019-03-06T11:13:14.006Z,5.45
2019-03-06T11:16:22.640Z,5.43
2019-03-06T11:18:52.142Z,5.42
2019-03-06T11:21:21.518Z,5.45
2019-03-06T11:23:51.103Z,5.44
2019-03-06T11:26:20.384Z,5.43
2019-03-06T11:28:49.992Z,5.46
2019-03-06T11:31:19.486Z,5.50
2019-03-06T11:33:49.096Z,5.58
2019-03-06T11:39:32.885Z,5.55
2019-03-06T11:42:02.273Z,5.56
2019-03-06T11:44:31.621Z,5.50
2019-03-06T11:47:01.398Z,5.56
2019-03-06T11:49:32.195Z,5.63
2019-03-06T11:52:01.528Z,5.70
2019-03-06T11:57:19.276Z,5.77
2019-03-06T11:59:49.055Z,5.81
2019-03-06T12:02:38.859Z,5.76
2019-03-06T12:08:17.723Z,5.84
2019-03-06T12:13:42.169Z,5.86
2019-03-06T12:16:50.797Z,5.91
2019-03-06T12:19:20.255Z,5.96
2019-03-06T12:21:49.562Z,5.86
2019-03-06T12:24:19.009Z,5.99
2019-03-06T12:26:48.307Z,5.90
2019-03-06T12:29:17.806Z,6.00
2019-03-06T12:32:07.204Z,5.97
2019-03-06T12:34:36.566Z,5.96
2019-03-06T12:37:06.116Z,5.96
2019-03-06T12:39:35.416Z,6.06
2019-03-06T12:42:23.825Z,6.03
2019-03-06T12:44:53.312Z,5.98
2019-03-06T12:47:22.598Z,6.08
2019-03-06T12:49:52.081Z,6.12
2019-03-06T12:52:21.545Z,6.16
2019-03-06T12:54:50.914Z,6.15
2019-03-06T12:57:20.238Z,6.24
2019-03-06T12:59:49.642Z,6.26
2019-03-06T13:02:18.923Z,6.23
2019-03-06T13:04:48.199Z,6.33
2019-03-06T13:07:18.186Z,6.32
2019-03-06T13:09:48.541Z,6.35
2019-03-06T13:15:27.191Z,6.32
2019-03-06T13:17:57.242Z,6.32
2019-03-06T13:20:26.504Z,6.39
2019-03-06T13:22:55.880Z,6.41
2019-03-06T13:25:45.680Z,6.43
2019-03-06T13:28:14.979Z,6.44
2019-03-06T13:30:44.514Z,6.45
2019-03-06T13:33:32.878Z,6.43
2019-03-06T13:39:05.944Z,6.47
2019-03-06T13:41:28.496Z,6.50
2019-03-06T13:43:58.038Z,6.49
2019-03-06T13:46:29.046Z,6.55
2019-03-06T13:48:58.487Z,6.52
2019-03-06T13:51:27.864Z,6.57
2019-03-06T13:59:19.967Z,6.62
2019-03-06T14:02:28.602Z,6.63
2019-03-06T14:04:57.920Z,6.63
2019-03-06T14:07:27.217Z,6.63
2019-03-06T14:09:56.654Z,6.65
2019-03-06T14:12:25.915Z,6.71
2019-03-06T14:14:55.249Z,6.69
2019-03-06T14:17:43.533Z,6.69
2019-03-06T14:20:13.094Z,6.69
2019-03-06T14:22:42.394Z,6.66
2019-03-06T14:25:32.258Z,6.68
2019-03-06T14:28:12.841Z,6.69
2019-03-06T14:31:23.221Z,6.68
2019-03-06T14:36:47.625Z,6.67
2019-03-06T14:39:36.135Z,6.66
2019-03-06T14:42:05.802Z,6.68
2019-03-06T14:44:35.320Z,6.52
2019-03-06T14:47:04.647Z,6.49
2019-03-06T14:49:35.817Z,6.54
2019-03-06T14:52:24.268Z,6.56
2019-03-06T14:54:53.612Z,6.56
2019-03-06T14:57:23.019Z,6.39
2019-03-06T14:59:52.519Z,6.47
2019-03-06T15:02:21.811Z,6.51
2019-03-06T15:04:51.248Z,6.47
2019-03-06T15:07:20.586Z,6.44
2019-03-06T15:09:51.409Z,6.44
2019-03-06T15:12:20.763Z,6.42
2019-03-06T15:15:09.047Z,6.44
2019-03-06T15:17:38.605Z,6.45
2019-03-06T15:20:10.197Z,6.40
2019-03-06T15:22:39.517Z,6.39
2019-03-06T15:25:12.310Z,6.35
2019-03-06T15:30:29.856Z,6.30
2019-03-06T15:32:59.198Z,6.28
2019-03-06T15:35:28.504Z,6.28
2019-03-06T15:43:30.214Z,5.87
2019-03-06T15:45:59.510Z,5.65
2019-03-06T15:48:28.814Z,6.12
2019-03-06T15:50:58.251Z,6.12
2019-03-06T15:53:27.557Z,5.81
2019-03-06T15:56:16.205Z,6.12
2019-03-06T15:58:45.615Z,6.10
2019-03-06T16:01:14.895Z,5.86
2019-03-06T16:03:44.392Z,6.10
2019-03-06T16:06:20.264Z,5.85
2019-03-06T16:08:45.018Z,6.08
2019-03-06T16:11:14.389Z,6.07
2019-03-06T16:13:43.772Z,6.03
2019-03-06T16:16:13.070Z,6.06
2019-03-06T16:18:42.760Z,6.03
2019-03-06T16:21:12.221Z,6.01
2019-03-06T16:23:41.530Z,5.97
2019-03-06T16:26:11.026Z,5.96
2019-03-06T16:28:40.413Z,5.95
2019-03-06T16:34:18.567Z,5.94
2019-03-06T16:36:47.869Z,5.78
2019-03-06T16:42:26.250Z,5.88
2019-03-06T16:44:55.592Z,5.90
2019-03-06T16:50:35.587Z,5.86
2019-03-06T16:53:05.174Z,5.80
2019-03-06T16:55:34.488Z,5.75
2019-03-06T16:58:04.192Z,5.73
2019-03-06T17:03:44.391Z,5.73
2019-03-06T17:06:13.866Z,5.68
2019-03-06T17:08:43.440Z,5.69
2019-03-06T17:11:12.985Z,5.70
2019-03-06T17:13:42.587Z,5.71
2019-03-06T17:16:11.995Z,5.73
2019-03-06T17:18:41.483Z,5.70
2019-03-06T17:21:10.799Z,5.67
2019-03-06T17:23:40.281Z,5.67
2019-03-06T17:26:09.589Z,5.64
2019-03-06T17:28:39.111Z,5.65
2019-03-06T17:31:08.437Z,5.63
2019-03-06T17:33:37.901Z,5.62
2019-03-06T17:38:55.559Z,5.57
2019-03-06T17:41:25.269Z,5.56
2019-03-06T17:44:02.498Z,5.50
2019-03-06T17:46:31.903Z,5.25
2019-03-06T17:49:01.493Z,5.48
2019-03-06T17:51:30.778Z,5.42
2019-03-06T17:54:00.384Z,5.38
2019-03-06T17:56:29.683Z,5.10
2019-03-06T17:58:59.249Z,5.36
2019-03-06T18:01:28.710Z,5.31
2019-03-06T18:09:35.565Z,5.26
2019-03-06T18:12:05.040Z,5.13
2019-03-06T18:14:34.446Z,5.08
2019-03-06T18:17:03.764Z,4.81
2019-03-06T18:19:33.305Z,4.98
2019-03-06T18:22:02.610Z,4.71
2019-03-06T18:24:32.176Z,4.95
2019-03-06T18:27:01.546Z,4.65
2019-03-06T18:29:31.060Z,4.84
2019-03-06T18:32:00.333Z,4.82
2019-03-06T18:34:29.875Z,4.79
2019-03-06T18:36:59.152Z,4.77
2019-03-06T18:39:28.873Z,4.72
2019-03-06T18:41:59.663Z,4.69
2019-03-06T18:47:36.552Z,4.58
2019-03-06T18:50:07.011Z,4.66
2019-03-06T18:52:55.291Z,4.63
2019-03-06T18:55:24.612Z,4.60
2019-03-06T19:00:42.665Z,4.55
2019-03-06T19:03:11.998Z,4.30
2019-03-06T19:05:41.318Z,4.53
2019-03-06T19:08:10.627Z,4.54
2019-03-06T19:10:41.843Z,4.50
2019-03-06T19:13:12.447Z,4.35
2019-03-06T19:15:42.740Z,4.42
2019-03-06T19:18:51.391Z,4.39
2019-03-06T19:21:22.719Z,4.36
2019-03-06T19:23:52.182Z,4.31
2019-03-06T19:26:21.511Z,4.27
2019-03-06T19:28:51.031Z,4.28
2019-03-06T19:31:20.365Z,4.28
2019-03-06T19:33:49.847Z,4.31
2019-03-06T19:36:19.183Z,4.22
2019-03-06T19:38:48.858Z,4.15
2019-03-06T19:41:37.355Z,4.09
2019-03-06T19:44:06.873Z,4.11
2019-03-06T19:46:36.233Z,4.07
2019-03-06T19:49:05.811Z,4.09
2019-03-06T19:51:35.679Z,4.07
2019-03-06T19:54:05.062Z,4.05
2019-03-06T19:56:34.757Z,4.04
2019-03-06T19:59:04.108Z,4.08
2019-03-06T20:01:33.540Z,4.07
2019-03-06T20:04:02.844Z,4.06
2019-03-06T20:06:32.233Z,4.08
2019-03-06T20:09:01.552Z,4.02
2019-03-06T20:11:31.230Z,4.00
2019-03-06T20:14:00.647Z,4.01
2019-03-06T20:16:37.570Z,4.00
2019-03-06T20:19:10.567Z,4.01
2019-03-06T20:21:40.082Z,4.01
2019-03-06T20:24:09.671Z,3.98
2019-03-06T20:26:39.022Z,3.98
2019-03-06T20:29:09.059Z,3.99
2019-03-06T20:31:38.379Z,3.81
2019-03-06T20:34:28.264Z,3.88
2019-03-06T20:36:57.634Z,3.86
2019-03-06T20:39:27.319Z,3.84
2019-03-06T20:41:56.666Z,3.84
2019-03-06T20:44:26.317Z,3.84
2019-03-06T20:46:55.641Z,3.83
2019-03-06T20:49:25.298Z,3.82
2019-03-06T20:51:54.628Z,3.78
2019-03-06T20:54:24.271Z,3.78
2019-03-06T20:56:53.621Z,3.52
2019-03-06T20:59:23.229Z,3.80
2019-03-06T21:01:52.626Z,3.77
2019-03-06T21:04:22.153Z,3.80
2019-03-06T21:06:51.572Z,3.52
2019-03-06T21:09:21.297Z,3.83
2019-03-06T21:11:50.672Z,3.84
2019-03-06T21:14:20.270Z,3.83
2019-03-06T21:16:49.672Z,3.86
2019-03-06T21:19:19.143Z,3.87
2019-03-06T21:21:48.453Z,3.62
2019-03-06T21:24:18.046Z,3.88
2019-03-06T21:26:47.390Z,3.88
2019-03-06T21:29:17.190Z,3.91
2019-03-06T21:32:05.782Z,3.93
2019-03-06T21:34:35.101Z,3.95
2019-03-06T21:37:04.606Z,3.96
2019-03-06T21:39:33.997Z,3.74
2019-03-06T21:42:03.349Z,4.00
2019-03-06T21:44:32.717Z,4.03
2019-03-06T21:47:02.023Z,4.04
2019-03-06T21:49:31.316Z,4.04
2019-03-06T21:52:00.895Z,4.04
2019-03-06T21:54:49.236Z,4.06
2019-03-06T21:57:18.725Z,4.09
2019-03-06T21:59:48.026Z,4.12
2019-03-06T22:02:36.422Z,4.16
2019-03-06T22:05:05.929Z,4.18
2019-03-06T22:07:35.253Z,4.21
2019-03-06T22:12:59.745Z,4.24
2019-03-06T22:15:29.086Z,4.27
2019-03-06T22:17:58.426Z,4.28
2019-03-06T22:20:27.717Z,4.15
2019-03-06T22:22:57.236Z,4.32
2019-03-06T22:25:26.536Z,4.13
2019-03-06T22:27:55.931Z,4.37
2019-03-06T22:30:25.216Z,4.42
2019-03-06T22:33:13.536Z,4.43
2019-03-06T22:35:43.312Z,4.46
2019-03-06T22:38:12.599Z,4.48
2019-03-06T22:40:42.080Z,4.52
2019-03-06T22:43:11.416Z,4.57
2019-03-06T22:45:40.885Z,4.58
2019-03-06T22:48:10.157Z,4.17
2019-03-06T22:50:58.709Z,4.65
2019-03-06T22:53:28.205Z,4.70
2019-03-06T22:56:16.412Z,4.74
2019-03-06T22:58:45.747Z,4.78
2019-03-06T23:01:38.251Z,4.81
2019-03-06T23:04:30.943Z,4.49
2019-03-06T23:07:00.232Z,4.93
2019-03-06T23:09:48.614Z,4.97
2019-03-06T23:12:18.142Z,5.04
2019-03-06T23:14:47.429Z,5.10
2019-03-06T23:19:52.697Z,5.01
2019-03-06T23:22:34.898Z,5.30
2019-03-06T23:25:04.517Z,5.34
2019-03-06T23:27:34.001Z,5.15
2019-03-06T23:30:03.272Z,5.45
2019-03-06T23:32:32.837Z,5.48
2019-03-06T23:35:02.135Z,5.52
2019-03-06T23:37:31.472Z,5.56
2019-03-06T23:40:00.766Z,5.60
2019-03-06T23:42:30.074Z,5.62
2019-03-06T23:44:59.362Z,5.64
2019-03-06T23:47:28.834Z,5.64
2019-03-06T23:49:58.381Z,5.69
2019-03-06T23:52:32.287Z,5.72
2019-03-06T23:55:01.613Z,5.74
2019-03-06T23:57:31.182Z,5.78
